Time;durP1;ratioP1;P1;durP2;ratioP2;P2;SDS_P1;SDS_P2;PMS_P1;PMS_P2;Temp;Humidity;BMP_temperature;BMP_pressure;BME280_temperature;BME280_humidity;BME280_pressure;Samples;Min_cycle;Max_cycle;Signal;HPM_P1;HPM_P2
2021/04/18 00:03:37;;;;;;;11.65;7.50;;;;;;;6.08;77.03;94574.72;4993018;22;20054;-81
2021/04/18 00:06:05;;;;;;;10.63;7.97;;;;;;;6.06;77.04;94558.66;4987008;28;20457;-80
2021/04/18 00:08:30;;;;;;;10.85;7.22;;;;;;;6.18;76.62;94564.72;4986482;28;20030;-81
2021/04/18 00:10:56;;;;;;;9.30;7.40;;;;;;;6.16;76.98;94569.28;4990114;28;20041;-78
2021/04/18 00:13:21;;;;;;;8.52;7.45;;;;;;;6.20;76.16;94568.69;4993845;28;20042;-78
2021/04/18 00:15:47;;;;;;;10.40;8.25;;;;;;;6.18;77.38;94562.13;4993431;28;20043;-81
2021/04/18 00:18:14;;;;;;;12.25;8.15;;;;;;;6.21;76.22;94561.72;5028140;23;20053;-81
2021/04/18 00:20:40;;;;;;;14.48;9.80;;;;;;;6.05;77.61;94554.50;4995899;28;20045;-80
2021/04/18 00:23:11;;;;;;;12.07;10.10;;;;;;;6.06;77.39;94554.28;4996719;28;20034;-81
2021/04/18 00:25:37;;;;;;;17.65;11.27;;;;;;;6.04;77.60;94552.91;4996887;28;20038;-81
2021/04/18 00:28:03;;;;;;;14.80;11.52;;;;;;;6.09;77.27;94550.50;5011102;28;20544;-80
2021/04/18 00:30:28;;;;;;;18.20;12.60;;;;;;;6.14;76.91;94542.91;4995871;28;20053;-81
2021/04/18 00:32:54;;;;;;;16.10;12.52;;;;;;;6.16;76.57;94541.69;4998847;23;20422;-80
2021/04/18 00:35:20;;;;;;;17.58;13.43;;;;;;;6.28;76.70;94541.81;5013420;22;20523;-81
2021/04/18 00:37:46;;;;;;;20.27;15.07;;;;;;;6.15;77.05;94545.28;4987014;28;20113;-81
2021/04/18 00:40:13;;;;;;;19.20;14.77;;;;;;;6.26;76.60;94546.38;5041656;22;20511;-81
2021/04/18 00:42:39;;;;;;;15.63;14.00;;;;;;;6.34;76.09;94543.53;4980147;28;20085;-81
2021/04/18 00:45:06;;;;;;;25.52;16.73;;;;;;;6.34;75.94;94538.34;4975893;28;20031;-81
2021/04/18 00:47:31;;;;;;;20.95;16.65;;;;;;;6.31;75.59;94549.13;4974395;28;20113;-81
2021/04/18 00:49:57;;;;;;;22.17;16.92;;;;;;;6.20;76.59;94536.91;4957174;28;20494;-81
2021/04/18 00:52:23;;;;;;;21.13;17.33;;;;;;;6.23;75.68;94536.47;4976652;28;20049;-81
2021/04/18 00:54:48;;;;;;;25.80;18.17;;;;;;;6.17;76.57;94537.31;4978541;28;20450;-81
2021/04/18 00:57:14;;;;;;;29.70;20.30;;;;;;;6.26;76.59;94541.22;4958593;28;20034;-80
2021/04/18 00:59:39;;;;;;;23.90;18.85;;;;;;;6.19;75.60;94541.28;4964598;28;20046;-79
2021/04/18 01:02:05;;;;;;;25.92;18.52;;;;;;;6.06;76.51;94545.75;4978434;28;20122;-79
2021/04/18 01:04:30;;;;;;;23.63;18.58;;;;;;;6.11;76.64;94558.81;4977039;28;20031;-80
2021/04/18 01:06:56;;;;;;;22.77;18.05;;;;;;;6.24;75.58;94551.75;4979666;28;20046;-80
2021/04/18 01:11:51;;;;;;;25.58;19.70;;;;;;;6.21;75.57;94533.31;5005366;22;20050;-80
2021/04/18 01:16:48;;;;;;;23.25;17.90;;;;;;;6.15;76.40;94529.00;5003144;22;20057;-80
2021/04/18 01:19:13;;;;;;;20.88;17.00;;;;;;;6.11;76.46;94523.47;5006451;23;20046;-81
2021/04/18 01:21:39;;;;;;;23.88;18.33;;;;;;;6.28;75.77;94534.84;4995847;28;20418;-80
2021/04/18 01:24:11;;;;;;;22.15;15.95;;;;;;;6.39;75.55;94530.00;4988526;28;20035;-80
2021/04/18 01:26:36;;;;;;;24.17;17.47;;;;;;;6.40;74.97;94532.38;4971018;28;20031;-80
2021/04/18 01:29:03;;;;;;;21.42;16.88;;;;;;;6.31;74.95;94543.94;4986503;28;20289;-80
2021/04/18 01:31:29;;;;;;;24.88;17.08;;;;;;;6.24;75.63;94520.00;4969792;28;20038;-80
2021/04/18 01:33:54;;;;;;;27.17;17.50;;;;;;;6.33;75.38;94536.78;4972473;28;20046;-80
2021/04/18 01:36:23;;;;;;;31.55;16.55;;;;;;;6.30;74.70;94537.22;4985660;28;20030;-80
2021/04/18 01:38:49;;;;;;;25.13;17.70;;;;;;;6.23;75.01;94531.31;4988744;28;20054;-80
2021/04/18 01:41:15;;;;;;;21.35;16.58;;;;;;;6.39;74.67;94535.16;4989478;28;20069;-80
2021/04/18 01:43:40;;;;;;;28.25;16.70;;;;;;;6.21;75.43;94528.16;4971336;28;20450;-80
2021/04/18 01:46:06;;;;;;;23.77;17.33;;;;;;;6.36;74.50;94520.88;5002426;28;20046;-80
2021/04/18 01:48:31;;;;;;;22.73;16.92;;;;;;;6.30;74.63;94529.47;4988801;28;20037;-80
2021/04/18 01:51:00;;;;;;;27.23;18.67;;;;;;;6.28;74.84;94523.72;4988012;28;20494;-80
2021/04/18 01:53:25;;;;;;;21.88;16.63;;;;;;;6.49;74.40;94535.44;4979581;23;20027;-80
2021/04/18 01:55:54;;;;;;;28.92;18.77;;;;;;;6.41;74.40;94525.41;5007015;22;20046;-80
2021/04/18 01:58:19;;;;;;;30.13;17.23;;;;;;;6.59;74.42;94538.34;4987445;28;20038;-81
2021/04/18 02:00:45;;;;;;;26.50;16.48;;;;;;;6.55;73.69;94537.19;4974632;28;20061;-80
2021/04/18 02:03:10;;;;;;;27.88;19.17;;;;;;;6.44;73.87;94537.88;4979040;28;20042;-81
2021/04/18 02:05:36;;;;;;;25.80;17.80;;;;;;;6.27;74.94;94542.81;4971667;28;20035;-81
2021/04/18 02:08:01;;;;;;;23.90;18.48;;;;;;;6.21;74.75;94541.06;4990724;28;20028;-81
2021/04/18 02:10:30;;;;;;;35.00;19.23;;;;;;;6.23;74.67;94526.16;4986766;28;20050;-80
2021/04/18 02:12:55;;;;;;;28.83;19.65;;;;;;;6.37;75.26;94522.47;4973637;28;20027;-81
2021/04/18 02:15:21;;;;;;;25.80;18.73;;;;;;;6.28;74.78;94521.13;4975894;28;20031;-79
2021/04/18 02:17:46;;;;;;;29.95;19.60;;;;;;;6.21;75.82;94520.41;4972331;28;20039;-80
2021/04/18 02:20:15;;;;;;;29.20;20.30;;;;;;;5.97;76.19;94527.94;4973026;28;20500;-80
2021/04/18 02:22:41;;;;;;;30.52;20.48;;;;;;;6.06;76.22;94525.09;4977070;28;20032;-80
2021/04/18 02:25:07;;;;;;;28.75;20.40;;;;;;;6.04;75.76;94532.28;4973308;28;20041;-81
2021/04/18 02:27:32;;;;;;;33.80;21.80;;;;;;;6.17;75.86;94526.97;5015926;23;20045;-81
2021/04/18 02:30:01;;;;;;;33.33;20.95;;;;;;;6.16;75.72;94530.56;5035370;23;20089;-79
2021/04/18 02:32:26;;;;;;;37.10;20.27;;;;;;;6.28;75.24;94523.72;4983143;28;20044;-80
2021/04/18 02:34:51;;;;;;;38.60;20.83;;;;;;;6.32;74.40;94514.53;5007533;28;20035;-81
2021/04/18 02:37:17;;;;;;;32.58;20.25;;;;;;;6.10;75.48;94510.78;4976221;28;20137;-81
2021/04/18 02:39:43;;;;;;;31.30;20.40;;;;;;;6.13;75.35;94512.94;4996981;28;20053;-81
2021/04/18 02:42:08;;;;;;;29.67;20.55;;;;;;;6.07;75.52;94522.31;4974050;28;20039;-81
2021/04/18 02:44:34;;;;;;;28.67;20.92;;;;;;;6.31;74.45;94523.28;5001915;23;20051;-81
2021/04/18 02:46:59;;;;;;;37.00;21.08;;;;;;;6.20;74.77;94531.75;4984639;28;20097;-81
2021/04/18 02:49:25;;;;;;;32.75;21.40;;;;;;;6.15;74.98;94513.50;4967038;28;20034;-81
2021/04/18 02:51:50;;;;;;;36.50;19.58;;;;;;;6.07;74.83;94522.31;4973453;23;20045;-80
2021/04/18 02:54:15;;;;;;;32.05;20.73;;;;;;;6.09;75.59;94519.53;4991024;28;20033;-81
2021/04/18 02:56:41;;;;;;;36.22;20.20;;;;;;;5.96;75.79;94510.88;4991961;28;20422;-82
2021/04/18 02:59:06;;;;;;;30.48;20.45;;;;;;;5.98;75.12;94529.50;4968484;28;20038;-81
2021/04/18 03:01:32;;;;;;;33.22;20.70;;;;;;;5.97;75.13;94533.09;4966703;28;20035;-81
2021/04/18 03:03:57;;;;;;;32.47;21.92;;;;;;;6.00;75.96;94539.63;4966529;22;20097;-82
2021/04/18 03:06:23;;;;;;;32.67;20.27;;;;;;;6.15;74.63;94529.00;4985888;28;20085;-80
2021/04/18 03:08:48;;;;;;;38.08;20.70;;;;;;;6.19;75.29;94527.59;4975301;28;20399;-81
2021/04/18 03:11:14;;;;;;;33.13;21.85;;;;;;;6.19;74.71;94530.16;4973843;28;20047;-81
2021/04/18 03:13:39;;;;;;;29.65;21.58;;;;;;;6.17;74.91;94542.47;4997684;28;20498;-81
2021/04/18 03:16:05;;;;;;;28.67;19.95;;;;;;;6.27;74.11;94542.81;4996914;28;20031;-80
2021/04/18 03:18:30;;;;;;;29.10;19.27;;;;;;;6.22;74.21;94545.22;5001663;28;20098;-80
2021/04/18 03:20:56;;;;;;;35.45;21.80;;;;;;;6.07;74.45;94552.50;4990758;28;20442;-81
2021/04/18 03:23:21;;;;;;;30.27;21.33;;;;;;;6.11;75.28;94558.81;4986781;28;20035;-81
2021/04/18 03:25:47;;;;;;;32.35;20.98;;;;;;;6.28;73.87;94554.72;4972985;28;20054;-81
2021/04/18 03:28:12;;;;;;;37.50;22.23;;;;;;;6.36;73.70;94557.03;5006491;28;20046;-81
2021/04/18 03:30:38;;;;;;;34.45;22.00;;;;;;;6.46;74.17;94561.72;4990014;28;20422;-81
2021/04/18 03:33:08;;;;;;;28.98;20.80;;;;;;;6.40;73.09;94537.53;4986041;28;20042;-81
2021/04/18 03:35:34;;;;;;;30.83;20.02;;;;;;;6.40;73.80;94541.91;5000959;28;20185;-80
2021/04/18 03:38:00;;;;;;;31.75;22.13;;;;;;;6.33;73.68;94541.94;4987899;28;20471;-80
2021/04/18 03:40:26;;;;;;;31.58;20.67;;;;;;;6.58;73.33;94540.16;4987795;28;20673;-81
2021/04/18 03:42:51;;;;;;;32.88;20.80;;;;;;;6.38;73.76;94544.69;4990487;28;20039;-80
2021/04/18 03:45:23;;;;;;;39.88;21.27;;;;;;;6.26;74.89;94541.22;4984177;28;20038;-81
2021/04/18 03:47:49;;;;;;;34.25;22.17;;;;;;;6.16;75.88;94540.91;4986879;28;20117;-81
2021/04/18 03:50:14;;;;;;;33.72;22.88;;;;;;;6.19;75.08;94545.66;4988506;28;20042;-80
2021/04/18 03:52:40;;;;;;;34.13;21.40;;;;;;;6.20;74.69;94552.41;5045937;23;20114;-80
2021/04/18 03:55:06;;;;;;;32.45;20.50;;;;;;;6.19;74.46;94543.09;5012137;28;20038;-79
2021/04/18 03:57:35;;;;;;;31.95;20.00;;;;;;;6.20;74.08;94542.06;5073273;22;20806;31
2021/04/18 04:00:00;;;;;;;33.53;20.83;;;;;;;6.21;74.36;94544.44;5194990;22;20053;-81
2021/04/18 04:02:51;;;;;;;27.45;19.98;;;;;;;6.05;75.05;94549.34;4980121;28;20499;-81
2021/04/18 04:05:16;;;;;;;38.08;21.73;;;;;;;6.03;74.65;94552.13;4960727;29;20062;-81
2021/04/18 04:07:42;;;;;;;30.63;20.70;;;;;;;6.10;74.67;94562.41;4957513;28;20035;-81
2021/04/18 04:10:08;;;;;;;36.95;20.67;;;;;;;6.25;73.59;94553.34;4958064;28;20507;-81
2021/04/18 04:12:33;;;;;;;41.17;20.25;;;;;;;6.09;73.43;94563.41;4956042;28;20061;-81
2021/04/18 04:14:58;;;;;;;30.90;20.42;;;;;;;5.98;75.22;94570.03;4952150;29;20039;-81
2021/04/18 04:17:26;;;;;;;35.47;20.58;;;;;;;5.96;75.35;94562.50;4959089;28;20070;-81
2021/04/18 04:19:51;;;;;;;31.45;20.38;;;;;;;5.87;75.14;94566.31;4958453;29;20047;-80
2021/04/18 04:22:20;;;;;;;32.92;21.00;;;;;;;5.86;75.93;94569.88;4958759;28;20512;-80
2021/04/18 04:24:46;;;;;;;33.70;20.20;;;;;;;5.93;75.41;94568.06;4961247;28;20035;-80
2021/04/18 04:27:13;;;;;;;34.10;20.17;;;;;;;6.03;74.88;94583.09;4941624;28;20623;-80
2021/04/18 04:29:38;;;;;;;32.75;21.38;;;;;;;6.12;75.39;94588.78;4938956;29;20645;-80
2021/04/18 04:32:04;;;;;;;31.25;20.42;;;;;;;6.11;74.92;94569.94;4971270;28;20035;-81
2021/04/18 04:34:55;;;;;;;33.30;20.75;;;;;;;6.03;75.35;94577.94;4957463;28;20046;-79
2021/04/18 04:37:21;;;;;;;30.48;19.73;;;;;;;5.97;75.53;94574.38;4957651;28;20031;-81
2021/04/18 04:39:46;;;;;;;31.17;18.85;;;;;;;6.07;75.02;94580.88;4957061;29;20388;-81
2021/04/18 04:42:12;;;;;;;30.88;21.88;;;;;;;5.99;75.12;94582.72;4939400;28;20478;-80
2021/04/18 04:44:37;;;;;;;32.97;17.73;;;;;;;6.04;75.42;94589.84;4954905;29;20051;-80
2021/04/18 04:47:03;;;;;;;34.92;17.73;;;;;;;6.05;74.91;94586.25;4938566;28;20163;-80
2021/04/18 04:49:28;;;;;;;27.95;15.85;;;;;;;6.08;74.78;94593.59;4957350;28;20994;-80
2021/04/18 04:51:54;;;;;;;29.30;17.25;;;;;;;6.03;75.13;94592.63;4954950;28;20027;-80
2021/04/18 04:54:19;;;;;;;28.95;17.08;;;;;;;6.08;75.00;94587.63;4960469;28;20035;-79
2021/04/18 04:56:44;;;;;;;28.83;15.20;;;;;;;5.96;75.04;94606.34;4959639;29;20039;-79
2021/04/18 04:59:10;;;;;;;21.20;14.93;;;;;;;6.06;75.07;94598.16;5001080;23;20046;-79
2021/04/18 05:01:35;;;;;;;26.95;15.20;;;;;;;5.95;74.40;94602.19;4996419;28;20038;-80
2021/04/18 05:04:01;;;;;;;35.00;15.43;;;;;;;6.12;74.88;94602.50;4983400;28;20057;-81
2021/04/18 05:06:26;;;;;;;24.13;13.90;;;;;;;6.02;75.06;94602.19;4978273;28;20027;-79
2021/04/18 05:08:52;;;;;;;29.35;15.45;;;;;;;5.97;74.72;94599.41;4978497;28;20035;-81
2021/04/18 05:11:23;;;;;;;26.35;14.18;;;;;;;6.05;74.69;94595.81;4981702;28;20097;-81
2021/04/18 05:13:49;;;;;;;30.38;14.00;;;;;;;5.96;74.61;94593.44;4980649;28;20046;-79
2021/04/18 05:16:14;;;;;;;20.23;13.00;;;;;;;6.13;73.97;94578.25;4998695;23;20457;-78
2021/04/18 05:18:42;;;;;;;22.38;13.23;;;;;;;6.31;73.70;94578.31;5013697;23;20042;-79
2021/04/18 05:21:07;;;;;;;16.98;12.43;;;;;;;6.30;73.21;94573.34;4998299;28;20088;-79
2021/04/18 05:23:33;;;;;;;18.70;13.23;;;;;;;6.23;74.33;94567.47;4997368;28;20042;-79
2021/04/18 05:25:58;;;;;;;23.50;13.20;;;;;;;6.22;73.42;94577.00;4995438;28;20038;-79
2021/04/18 05:31:00;;;;;;;19.02;12.77;;;;;;;6.27;73.78;94576.38;4995344;28;20109;-79
2021/04/18 05:33:25;;;;;;;21.58;12.63;;;;;;;6.44;72.01;94574.06;4998302;23;20419;-79
2021/04/18 05:35:51;;;;;;;16.70;13.18;;;;;;;6.37;73.24;94576.69;4981450;28;20442;-79
2021/04/18 05:38:17;;;;;;;19.13;12.27;;;;;;;6.39;72.49;94572.09;4983982;28;20043;-80
2021/04/18 05:40:42;;;;;;;22.65;12.23;;;;;;;6.46;72.92;94567.66;4980425;28;20027;-80
2021/04/18 05:43:09;;;;;;;27.92;14.02;;;;;;;6.57;72.41;94569.56;4996189;23;20054;-79
2021/04/18 05:45:35;;;;;;;26.90;14.50;;;;;;;6.43;72.38;94575.06;5002248;22;20050;-79
2021/04/18 05:48:01;;;;;;;27.58;14.85;;;;;;;6.46;72.13;94567.66;4984196;28;20116;-79
2021/04/18 05:52:55;;;;;;;24.98;13.48;;;;;;;6.69;72.90;94581.78;4997470;22;20054;-79
2021/04/18 05:55:21;;;;;;;19.95;13.45;;;;;;;6.74;72.26;94579.34;4977289;28;20042;-79
2021/04/18 05:57:46;;;;;;;27.80;12.75;;;;;;;6.72;72.68;94589.13;4990555;23;20053;-80
2021/04/18 06:00:12;;;;;;;21.35;13.68;;;;;;;6.57;72.37;94572.16;5031528;23;20053;-80
2021/04/18 06:02:38;;;;;;;21.98;14.20;;;;;;;6.76;72.22;94583.28;5009722;28;20053;-80
2021/04/18 06:05:04;;;;;;;20.60;13.55;;;;;;;6.89;71.66;94582.38;4946905;28;20027;-80
2021/04/18 06:07:29;;;;;;;20.48;14.70;;;;;;;6.86;71.51;94578.44;4979662;28;20070;-79
2021/04/18 06:09:55;;;;;;;26.73;14.52;;;;;;;6.84;71.81;94577.06;4978607;28;20038;-78
2021/04/18 06:12:20;;;;;;;21.95;14.52;;;;;;;6.89;71.97;94582.38;4995225;23;20024;-78
2021/04/18 06:14:46;;;;;;;31.25;15.65;;;;;;;7.08;71.10;94580.59;5038388;28;20042;-78
2021/04/18 06:17:11;;;;;;;26.45;15.73;;;;;;;7.06;70.57;94580.81;5033538;28;20041;-78
2021/04/18 06:19:37;;;;;;;24.27;14.05;;;;;;;7.00;71.24;94579.09;5005784;28;20034;-78
2021/04/18 06:24:34;;;;;;;26.98;15.35;;;;;;;6.92;71.30;94587.13;5001086;28;20478;-80
2021/04/18 06:26:59;;;;;;;17.60;13.93;;;;;;;7.07;70.61;94582.41;5000120;22;20062;-79
2021/04/18 06:29:25;;;;;;;24.58;13.93;;;;;;;7.08;69.73;94596.91;4990323;28;20607;-80
2021/04/18 06:31:56;;;;;;;24.17;13.48;;;;;;;7.25;68.93;94596.31;4993560;28;20038;-80
2021/04/18 06:34:23;;;;;;;18.20;13.43;;;;;;;7.23;69.43;94594.75;4986571;22;20523;-79
2021/04/18 06:36:49;;;;;;;22.17;12.88;;;;;;;7.37;69.04;94592.81;5045065;22;20137;-81
2021/04/18 06:39:15;;;;;;;20.10;13.70;;;;;;;7.56;68.47;94593.56;4991560;28;20130;-81
2021/04/18 06:41:40;;;;;;;20.13;13.23;;;;;;;7.68;67.47;94591.03;4988496;28;20038;-81
2021/04/18 06:44:06;;;;;;;20.05;14.07;;;;;;;7.63;67.32;94589.09;5043541;23;20050;-81
2021/04/18 06:46:31;;;;;;;17.85;13.30;;;;;;;7.64;66.73;94590.66;4969301;28;20062;-82
2021/04/18 06:48:58;;;;;;;19.60;13.95;;;;;;;7.81;67.37;94596.84;4960386;28;20039;-80
2021/04/18 06:51:24;;;;;;;21.33;13.50;;;;;;;7.68;67.30;94597.00;4926534;29;20043;-80
2021/04/18 06:53:49;;;;;;;31.60;14.98;;;;;;;7.48;67.64;94596.44;4961355;28;20043;-80
2021/04/18 06:56:40;;;;;;;23.27;13.35;;;;;;;7.80;67.22;94594.44;4971115;28;20031;-81
2021/04/18 06:59:06;;;;;;;18.83;13.98;;;;;;;7.98;66.57;94601.41;4959664;28;20126;-79
2021/04/18 07:01:32;;;;;;;18.10;13.48;;;;;;;7.94;65.98;94606.22;4982314;22;20129;-80
2021/04/18 07:04:14;;;;;;;24.00;15.63;;;;;;;7.80;66.76;94600.41;4987738;28;20428;-80
2021/04/18 07:06:45;;;;;;;21.70;14.65;;;;;;;7.70;66.70;94605.34;4990037;28;20586;-80
2021/04/18 07:09:11;;;;;;;20.77;13.90;;;;;;;7.58;67.01;94607.06;4964765;28;20053;-81
2021/04/18 07:11:51;;;;;;;20.05;12.50;;;;;;;7.79;66.60;94609.19;4968874;28;20018;-81
2021/04/18 07:14:19;;;;;;;23.17;13.30;;;;;;;7.97;66.15;94612.75;4982258;28;20182;-76
2021/04/18 07:16:44;;;;;;;20.52;12.73;;;;;;;7.83;66.54;94615.53;4986792;28;20096;-81
2021/04/18 07:19:24;;;;;;;19.70;12.60;;;;;;;7.73;66.80;94604.09;4989487;28;20069;-84
2021/04/18 07:21:55;;;;;;;18.52;13.90;;;;;;;7.98;66.71;94604.00;4995013;28;20035;-82
2021/04/18 07:24:21;;;;;;;17.52;12.85;;;;;;;8.14;66.16;94605.97;5052626;23;20058;-81
2021/04/18 07:26:57;;;;;;;19.58;14.10;;;;;;;8.23;65.53;94609.78;5010629;22;20528;-82
2021/04/18 07:29:58;;;;;;;19.65;12.57;;;;;;;8.37;65.16;94613.78;4983706;28;20046;-83
2021/04/18 07:35:50;;;;;;;24.17;13.43;;;;;;;8.49;64.86;94603.47;5250417;22;20052;-81
2021/04/18 07:38:22;;;;;;;17.02;12.63;;;;;;;8.38;64.70;94607.59;4958461;29;20095;-80
2021/04/18 07:40:53;;;;;;;20.42;14.20;;;;;;;8.49;65.02;94613.81;4949075;29;20035;-80
2021/04/18 07:43:18;;;;;;;20.77;14.95;;;;;;;8.58;64.67;94606.50;4945608;28;20050;-81
2021/04/18 07:45:48;;;;;;;21.63;14.88;;;;;;;8.62;64.03;94615.41;4978589;28;20300;-82
2021/04/18 07:48:15;;;;;;;22.65;15.35;;;;;;;8.62;63.99;94616.22;4976783;28;20035;-81
2021/04/18 07:50:45;;;;;;;23.80;16.15;;;;;;;8.69;64.28;94614.28;4976481;28;20043;-81
2021/04/18 07:53:10;;;;;;;22.35;16.73;;;;;;;8.90;63.62;94620.72;4968805;28;20043;-82
2021/04/18 07:55:36;;;;;;;23.75;16.00;;;;;;;9.08;63.01;94621.63;4955525;28;20043;-81
2021/04/18 07:58:03;;;;;;;19.80;15.18;;;;;;;9.10;63.07;94632.56;4970852;28;20028;-82
2021/04/18 08:00:29;;;;;;;24.95;16.95;;;;;;;9.06;63.29;94623.66;4953184;28;20042;-81
2021/04/18 08:02:54;;;;;;;29.65;18.60;;;;;;;9.02;63.75;94621.50;4989425;23;20422;-81
2021/04/18 08:05:22;;;;;;;27.17;17.25;;;;;;;9.08;63.15;94621.63;4988559;28;20093;-84
2021/04/18 08:08:34;;;;;;;32.33;18.33;;;;;;;9.24;63.01;94628.72;4992740;28;20088;-83
2021/04/18 08:11:00;;;;;;;23.65;16.27;;;;;;;9.37;62.36;94625.88;4986146;28;20046;-83
2021/04/18 08:13:26;;;;;;;22.80;16.42;;;;;;;9.25;62.13;94632.88;5013980;28;20077;-84
2021/04/18 08:15:55;;;;;;;31.25;18.40;;;;;;;9.20;62.36;94630.19;5004969;28;20034;-84
2021/04/18 08:18:32;;;;;;;28.73;19.42;;;;;;;9.18;62.69;94627.03;5008104;28;20085;-84
2021/04/18 08:20:58;;;;;;;28.58;18.98;;;;;;;9.18;62.47;94627.81;4994169;28;20042;-85
2021/04/18 08:23:23;;;;;;;28.50;19.73;;;;;;;9.28;61.88;94625.44;5021669;23;20155;-83
2021/04/18 08:26:09;;;;;;;31.27;21.20;;;;;;;9.35;62.24;94625.31;4994800;28;20101;-83
2021/04/18 08:28:58;;;;;;;26.50;18.77;;;;;;;9.33;61.54;94635.13;4959433;28;20042;-83
2021/04/18 08:31:28;;;;;;;30.27;18.77;;;;;;;9.22;61.93;94628.16;4976803;28;20035;-81
2021/04/18 08:33:58;;;;;;;26.23;19.42;;;;;;;9.24;62.01;94631.31;5012616;23;20510;-82
2021/04/18 08:36:25;;;;;;;31.98;20.98;;;;;;;9.36;61.71;94633.88;5027094;28;20041;-84
2021/04/18 08:39:00;;;;;;;38.78;21.45;;;;;;;9.57;62.13;94636.66;4989989;28;20418;-83
2021/04/18 08:41:38;;;;;;;29.60;19.13;;;;;;;9.69;60.89;94628.06;5003751;28;20148;-84
2021/04/18 08:44:23;;;;;;;31.73;21.85;;;;;;;9.86;60.41;94636.69;4995871;28;20136;-84
2021/04/18 08:46:50;;;;;;;28.40;20.20;;;;;;;9.95;59.64;94637.94;5019028;28;20056;-84
2021/04/18 08:49:38;;;;;;;32.58;21.30;;;;;;;9.94;59.92;94633.75;5009076;28;20461;-84
2021/04/18 08:52:27;;;;;;;29.40;21.92;;;;;;;10.09;59.21;94639.22;5010664;28;20031;-82
2021/04/18 08:54:55;;;;;;;28.33;19.58;;;;;;;10.12;59.56;94640.56;5001050;28;20058;-81
2021/04/18 08:57:25;;;;;;;30.52;19.95;;;;;;;10.15;59.49;94648.69;4981333;23;20032;-83
2021/04/18 08:59:56;;;;;;;32.20;20.15;;;;;;;10.16;59.41;94650.25;4972596;28;20181;-83
2021/04/18 09:02:29;;;;;;;33.80;21.38;;;;;;;10.33;58.95;94654.72;5034780;22;20070;-82
2021/04/18 09:05:00;;;;;;;32.53;20.38;;;;;;;10.38;58.33;94649.63;5264936;22;20096;-82
2021/04/18 09:07:33;;;;;;;31.10;21.05;;;;;;;10.40;58.25;94657.97;4986185;28;20038;-83
2021/04/18 09:09:59;;;;;;;32.95;21.42;;;;;;;10.45;58.50;94650.28;4961976;28;20045;-82
2021/04/18 09:12:25;;;;;;;30.15;20.10;;;;;;;10.44;58.49;94646.09;4976488;28;20045;-81
2021/04/18 09:14:51;;;;;;;31.75;21.77;;;;;;;10.47;59.22;94645.63;4981496;28;20030;-82
2021/04/18 09:17:18;;;;;;;33.58;20.77;;;;;;;10.56;57.97;94644.19;4974740;28;20118;-82
2021/04/18 09:19:46;;;;;;;32.53;22.48;;;;;;;10.63;57.76;94651.88;4984817;28;20046;-82
2021/04/18 09:22:19;;;;;;;37.50;21.50;;;;;;;10.66;58.30;94644.38;4984752;28;20034;-82
2021/04/18 09:24:51;;;;;;;32.22;20.48;;;;;;;10.76;57.44;94654.94;4981239;28;20078;-82
2021/04/18 09:27:18;;;;;;;32.22;21.27;;;;;;;10.79;57.18;94649.25;4985786;28;20042;-81
2021/04/18 09:30:01;;;;;;;40.28;21.17;;;;;;;10.89;58.26;94643.41;4983198;28;20053;-80
2021/04/18 09:32:37;;;;;;;33.47;22.95;;;;;;;10.80;58.44;94661.25;4984019;28;20069;-80
2021/04/18 09:35:04;;;;;;;37.33;22.80;;;;;;;10.92;58.24;94655.19;5007865;23;20093;-80
2021/04/18 09:37:33;;;;;;;31.17;21.00;;;;;;;10.99;57.40;94653.19;4992723;28;20041;-81
2021/04/18 09:40:02;;;;;;;33.15;21.55;;;;;;;11.00;58.61;94654.78;4989317;28;20097;-80
2021/04/18 09:42:54;;;;;;;40.97;21.65;;;;;;;10.95;57.41;94652.88;4991152;28;20041;-80
2021/04/18 09:45:22;;;;;;;38.78;22.88;;;;;;;10.98;58.74;94641.22;4991669;28;20038;-80
2021/04/18 09:47:49;;;;;;;35.83;23.05;;;;;;;11.01;58.10;94640.72;4992569;28;20121;-80
2021/04/18 09:50:18;;;;;;;37.45;22.83;;;;;;;11.06;58.50;94638.19;5028993;22;20017;-79
2021/04/18 09:52:43;;;;;;;33.92;22.80;;;;;;;11.14;57.71;94640.41;4982589;28;20422;-79
2021/04/18 09:55:13;;;;;;;33.67;22.38;;;;;;;11.26;57.97;94638.50;4979980;28;20049;-80
2021/04/18 09:57:49;;;;;;;34.90;23.45;;;;;;;11.27;58.32;94647.88;4973137;28;20074;-80
2021/04/18 10:00:15;;;;;;;49.92;28.88;;;;;;;11.30;59.35;94657.81;4975447;28;20463;-80
2021/04/18 10:02:41;;;;;;;39.47;24.83;;;;;;;11.34;58.52;94651.09;4984792;28;20043;-81
2021/04/18 10:05:07;;;;;;;47.63;25.13;;;;;;;11.35;58.30;94650.06;4982399;28;20506;-80
2021/04/18 10:07:32;;;;;;;41.35;24.85;;;;;;;11.41;58.20;94649.13;4985539;28;20049;-81
2021/04/18 10:09:58;;;;;;;40.47;24.45;;;;;;;11.41;59.77;94645.72;4981440;28;20387;-80
2021/04/18 10:12:50;;;;;;;43.33;26.13;;;;;;;11.39;59.22;94659.00;4979700;28;20061;-80
2021/04/18 10:15:15;;;;;;;43.88;25.52;;;;;;;11.49;58.96;94652.31;4982385;28;20057;-80
2021/04/18 10:17:41;;;;;;;39.17;26.05;;;;;;;11.69;58.73;94652.56;5005598;23;20404;-80
2021/04/18 10:20:07;;;;;;;42.45;26.17;;;;;;;11.87;58.71;94644.47;4980924;28;20074;-79
2021/04/18 10:22:35;;;;;;;41.13;28.10;;;;;;;12.10;57.71;94647.88;4980134;28;20034;-80
2021/04/18 10:25:06;;;;;;;45.80;28.60;;;;;;;12.30;57.32;94643.66;4981216;28;20132;-79
2021/04/18 10:27:33;;;;;;;50.60;30.58;;;;;;;12.59;57.07;94641.56;4982624;28;20034;-79
2021/04/18 10:29:58;;;;;;;54.10;32.20;;;;;;;12.75;55.87;94644.31;4988066;28;20038;-79
2021/04/18 10:32:23;;;;;;;52.45;32.60;;;;;;;12.76;55.28;94646.66;4974374;28;20434;-78
2021/04/18 10:35:15;;;;;;;41.65;28.52;;;;;;;12.72;54.63;94656.03;4979043;28;20427;-79
2021/04/18 10:37:40;;;;;;;45.25;28.73;;;;;;;12.68;54.69;94654.16;4991201;23;20094;-79
2021/04/18 10:40:06;;;;;;;41.15;28.08;;;;;;;12.43;55.77;94657.31;4996766;22;20046;-79
2021/04/18 10:42:31;;;;;;;47.80;29.45;;;;;;;12.39;55.03;94657.03;4983896;28;20046;-79
2021/04/18 10:45:00;;;;;;;47.88;31.75;;;;;;;12.27;56.52;94661.59;5013621;22;20058;-79
2021/04/18 10:47:25;;;;;;;52.47;32.47;;;;;;;12.30;55.86;94664.50;4982963;28;20580;-79
2021/04/18 10:49:51;;;;;;;53.20;33.95;;;;;;;12.27;56.43;94670.22;5006499;28;20045;-79
2021/04/18 10:52:17;;;;;;;59.42;35.65;;;;;;;12.18;57.15;94665.66;4980897;28;20038;-79
2021/04/18 10:54:42;;;;;;;49.55;33.00;;;;;;;12.13;56.69;94663.00;4981856;28;20031;-79
2021/04/18 10:57:08;;;;;;;63.92;40.95;;;;;;;12.01;56.15;94666.53;5003554;28;20038;-79
2021/04/18 10:59:33;;;;;;;59.45;35.92;;;;;;;12.02;56.95;94662.91;4982094;28;20049;-79
2021/04/18 11:01:59;;;;;;;50.28;35.30;;;;;;;11.97;57.15;94660.25;4983271;28;20554;-79
2021/04/18 11:04:24;;;;;;;61.63;36.10;;;;;;;11.88;57.88;94661.72;5006859;28;20536;-79
2021/04/18 11:06:50;;;;;;;48.00;30.58;;;;;;;12.04;57.29;94670.50;5020044;23;20054;-79
2021/04/18 11:09:15;;;;;;;54.03;35.75;;;;;;;12.14;57.56;94681.00;4985873;28;20445;-79
2021/04/18 11:11:41;;;;;;;67.60;41.78;;;;;;;12.15;57.06;94672.16;4985734;28;20516;-77
2021/04/18 11:14:07;;;;;;;69.15;43.55;;;;;;;12.07;57.85;94669.22;4982652;28;20150;-77
2021/04/18 11:16:32;;;;;;;66.97;44.67;;;;;;;12.09;57.88;94669.75;4990366;28;20034;-78
2021/04/18 11:18:58;;;;;;;60.78;38.63;;;;;;;12.06;57.49;94670.25;5026664;23;20149;-80
2021/04/18 11:21:26;;;;;;;68.18;39.38;;;;;;;12.08;57.54;94668.19;5002977;28;20084;-79
2021/04/18 11:23:52;;;;;;;76.05;44.28;;;;;;;12.10;57.62;94668.72;5028034;22;20047;-77
2021/04/18 11:26:18;;;;;;;80.05;50.03;;;;;;;12.09;58.26;94662.72;4991594;28;20031;-78
2021/04/18 11:28:44;;;;;;;76.70;47.22;;;;;;;12.11;57.16;94665.88;4977629;28;20030;-79
2021/04/18 11:31:09;;;;;;;79.90;47.47;;;;;;;12.14;57.59;94669.81;4958350;28;20360;-79
2021/04/18 11:33:36;;;;;;;81.50;51.42;;;;;;;12.11;57.67;94670.28;4972764;28;20495;-79
2021/04/18 11:36:01;;;;;;;77.28;47.38;;;;;;;12.09;57.92;94667.94;4957958;28;20042;-79
2021/04/18 11:38:27;;;;;;;70.30;42.92;;;;;;;12.14;57.85;94669.81;4975786;28;20027;-83
2021/04/18 11:40:55;;;;;;;74.50;39.80;;;;;;;11.99;58.30;94667.81;4988440;28;20034;-78
2021/04/18 11:43:21;;;;;;;57.28;36.63;;;;;;;12.07;57.76;94669.22;4980556;28;20482;-78
2021/04/18 11:45:46;;;;;;;64.07;35.13;;;;;;;12.07;57.74;94666.59;4979492;28;20031;-79